createdAt,value
2023-03-25T00:00:53.189Z,9.60
2023-03-25T00:03:22.255Z,9.60
2023-03-25T00:05:51.966Z,9.60
2023-03-25T00:08:19.904Z,9.60
2023-03-25T00:10:52.554Z,9.60
2023-03-25T00:13:21.304Z,9.60
2023-03-25T00:15:50.160Z,9.50
2023-03-25T00:18:18.338Z,9.50
2023-03-25T00:20:49.515Z,9.50
2023-03-25T00:23:20.700Z,9.50
2023-03-25T00:25:49.225Z,9.50
2023-03-25T00:28:17.722Z,9.50
2023-03-25T00:30:46.798Z,9.50
2023-03-25T00:33:16.340Z,9.40
2023-03-25T00:35:45.046Z,9.40
2023-03-25T00:38:12.930Z,9.30
2023-03-25T00:40:42.198Z,9.40
2023-03-25T00:43:12.186Z,9.30
2023-03-25T00:45:39.933Z,9.30
2023-03-25T00:48:08.042Z,9.20
2023-03-25T00:50:35.812Z,9.20
2023-03-25T00:53:03.945Z,9.20
2023-03-25T00:55:31.735Z,9.20
2023-03-25T00:58:00.914Z,9.20
2023-03-25T01:00:28.663Z,9.20
2023-03-25T01:02:56.469Z,9.20
2023-03-25T01:05:24.305Z,9.20
2023-03-25T01:07:52.090Z,9.30
2023-03-25T01:10:19.931Z,9.20
2023-03-25T01:12:47.701Z,9.20
2023-03-25T01:15:17.076Z,9.30
2023-03-25T01:17:44.846Z,9.20
2023-03-25T01:20:12.972Z,9.20
2023-03-25T01:22:40.777Z,9.20
2023-03-25T01:25:09.270Z,9.10
2023-03-25T01:27:37.167Z,9.10
2023-03-25T01:30:05.626Z,9.10
2023-03-25T01:32:34.798Z,9.00
2023-03-25T01:35:04.409Z,9.00
2023-03-25T01:37:34.014Z,8.90
2023-03-25T01:40:01.789Z,8.90
2023-03-25T01:42:29.571Z,8.90
2023-03-25T01:45:19.271Z,8.90
2023-03-25T01:47:50.704Z,8.90
2023-03-25T01:50:18.853Z,8.80
2023-03-25T01:52:50.827Z,8.80
2023-03-25T01:55:20.069Z,8.80
2023-03-25T01:57:49.221Z,8.70
2023-03-25T02:00:19.154Z,8.70
2023-03-25T02:02:48.863Z,8.70
2023-03-25T02:05:20.958Z,8.60
2023-03-25T02:07:50.342Z,8.60
2023-03-25T02:10:20.336Z,8.60
2023-03-25T02:12:48.182Z,8.60
2023-03-25T02:15:18.477Z,8.60
2023-03-25T02:18:03.054Z,8.70
2023-03-25T02:21:12.435Z,8.80
2023-03-25T02:24:14.011Z,8.60
2023-03-25T02:27:27.411Z,8.60
2023-03-25T02:30:37.966Z,8.60
2023-03-25T02:33:47.842Z,8.60
2023-03-25T02:36:46.245Z,8.60
2023-03-25T02:39:19.915Z,8.60
2023-03-25T02:41:53.844Z,8.60
2023-03-25T02:44:29.862Z,8.60
2023-03-25T02:47:02.958Z,8.60
2023-03-25T02:49:32.843Z,8.60
2023-03-25T02:52:05.944Z,8.60
2023-03-25T02:54:39.113Z,8.60
2023-03-25T02:57:09.014Z,8.60
2023-03-25T02:59:39.886Z,8.50
2023-03-25T03:02:10.065Z,8.50
2023-03-25T03:04:50.341Z,8.50
2023-03-25T03:07:24.406Z,8.50
2023-03-25T03:10:01.333Z,8.50
2023-03-25T03:12:46.472Z,8.50
2023-03-25T03:15:26.552Z,8.50
2023-03-25T03:18:07.864Z,8.50
2023-03-25T03:20:41.712Z,8.40
2023-03-25T03:23:15.848Z,8.40
2023-03-25T03:25:51.829Z,8.40
2023-03-25T03:28:27.515Z,8.40
2023-03-25T03:31:01.099Z,8.40
2023-03-25T03:33:33.810Z,8.40
2023-03-25T03:36:05.754Z,8.30
2023-03-25T03:38:39.344Z,8.30
2023-03-25T03:41:11.743Z,8.40
2023-03-25T03:43:43.852Z,8.40
2023-03-25T03:46:17.090Z,8.40
2023-03-25T03:48:48.718Z,8.40
2023-03-25T03:51:21.358Z,8.50
2023-03-25T03:53:52.984Z,8.50
2023-03-25T03:56:25.416Z,8.50
2023-03-25T03:58:58.373Z,8.50
2023-03-25T04:01:34.560Z,8.50
2023-03-25T04:04:05.877Z,8.60
2023-03-25T04:06:41.521Z,8.60
2023-03-25T04:09:18.378Z,8.60
2023-03-25T04:11:54.650Z,8.60
2023-03-25T04:14:23.004Z,8.60
2023-03-25T04:16:52.979Z,8.60
2023-03-25T04:19:20.954Z,8.60
2023-03-25T04:21:49.604Z,8.60
2023-03-25T04:24:19.525Z,8.60
2023-03-25T04:26:49.553Z,8.60
2023-03-25T04:29:17.295Z,8.50
2023-03-25T04:31:49.523Z,8.40
2023-03-25T04:34:17.360Z,8.40
2023-03-25T04:36:46.728Z,8.30
2023-03-25T04:39:17.711Z,8.20
2023-03-25T04:41:45.849Z,8.10
2023-03-25T04:44:15.049Z,8.10
2023-03-25T04:46:43.006Z,8.00
2023-03-25T04:49:19.006Z,8.00
2023-03-25T04:51:47.658Z,8.10
2023-03-25T04:54:18.233Z,8.00
2023-03-25T04:56:47.547Z,8.00
2023-03-25T04:59:16.975Z,8.00
2023-03-25T05:01:45.974Z,8.00
2023-03-25T05:04:17.472Z,8.00
2023-03-25T05:06:47.117Z,7.90
2023-03-25T05:09:17.004Z,7.90
2023-03-25T05:11:44.783Z,7.90
2023-03-25T05:14:15.296Z,8.00
2023-03-25T05:16:45.215Z,8.00
2023-03-25T05:19:13.486Z,8.00
2023-03-25T05:21:42.254Z,8.00
2023-03-25T05:24:11.911Z,7.90
2023-03-25T05:26:40.976Z,7.90
2023-03-25T05:29:10.351Z,8.00
2023-03-25T05:31:39.793Z,7.90
2023-03-25T05:34:09.248Z,7.90
2023-03-25T05:36:37.197Z,7.90
2023-03-25T05:39:05.800Z,7.90
2023-03-25T05:41:38.552Z,7.90
2023-03-25T05:44:06.907Z,7.80
2023-03-25T05:46:35.244Z,7.80
2023-03-25T05:49:03.154Z,7.80
2023-03-25T05:51:37.332Z,7.80
2023-03-25T05:54:10.789Z,7.80
2023-03-25T05:56:39.326Z,7.80
2023-03-25T05:59:08.041Z,7.80
2023-03-25T06:01:37.372Z,7.80
2023-03-25T06:04:09.767Z,7.80
2023-03-25T06:06:39.926Z,7.70
2023-03-25T06:09:08.262Z,7.80
2023-03-25T06:11:38.326Z,7.80
2023-03-25T06:14:07.735Z,7.80
2023-03-25T06:16:36.107Z,7.80
2023-03-25T06:19:04.135Z,7.80
2023-03-25T06:21:33.726Z,7.80
2023-03-25T06:24:03.373Z,7.80
2023-03-25T06:26:32.513Z,7.80
2023-03-25T06:29:01.165Z,7.80
2023-03-25T06:31:33.103Z,7.90
2023-03-25T06:34:01.268Z,7.90
2023-03-25T06:36:29.387Z,7.90
2023-03-25T06:38:58.288Z,7.90
2023-03-25T06:41:27.425Z,7.90
2023-03-25T06:43:55.179Z,7.90
2023-03-25T06:46:22.980Z,8.00
2023-03-25T06:48:50.804Z,8.00
2023-03-25T06:51:18.619Z,8.00
2023-03-25T06:53:46.401Z,8.00
2023-03-25T06:56:14.176Z,8.00
2023-03-25T06:58:43.334Z,8.00
2023-03-25T07:01:11.268Z,8.10
2023-03-25T07:03:39.113Z,8.20
2023-03-25T07:06:07.981Z,8.40
2023-03-25T07:08:35.977Z,8.50
2023-03-25T07:11:05.228Z,8.60
2023-03-25T07:13:33.061Z,8.70
2023-03-25T07:16:02.357Z,8.70
2023-03-25T07:18:30.280Z,8.70
2023-03-25T07:20:58.090Z,8.70
2023-03-25T07:23:26.278Z,8.70
2023-03-25T07:25:55.048Z,8.70
2023-03-25T07:28:22.839Z,8.60
2023-03-25T07:30:50.696Z,8.60
2023-03-25T07:33:19.796Z,8.60
2023-03-25T07:35:47.967Z,8.60
2023-03-25T07:38:16.010Z,8.60
2023-03-25T07:40:43.790Z,8.60
2023-03-25T07:43:18.240Z,8.60
2023-03-25T07:45:46.094Z,8.60
2023-03-25T07:48:16.099Z,8.70
2023-03-25T07:50:46.390Z,8.70
2023-03-25T07:53:14.143Z,8.70
2023-03-25T07:55:41.882Z,8.80
2023-03-25T07:58:09.685Z,8.90
2023-03-25T08:00:37.475Z,9.00
2023-03-25T08:03:06.491Z,9.00
2023-03-25T08:05:34.486Z,9.10
2023-03-25T08:08:06.397Z,9.00
2023-03-25T08:10:35.005Z,9.00
2023-03-25T08:13:02.793Z,9.10
2023-03-25T08:15:30.537Z,9.10
2023-03-25T08:17:58.386Z,9.20
2023-03-25T08:20:26.179Z,9.30
2023-03-25T08:22:53.928Z,9.40
2023-03-25T08:25:23.035Z,9.50
2023-03-25T08:27:50.800Z,9.60
2023-03-25T08:30:18.562Z,9.60
2023-03-25T08:32:46.875Z,9.60
2023-03-25T08:35:14.728Z,9.60
2023-03-25T08:37:42.488Z,9.70
2023-03-25T08:40:10.596Z,9.90
2023-03-25T08:42:39.737Z,10.20
2023-03-25T08:45:08.805Z,10.70
2023-03-25T08:47:36.608Z,11.30
2023-03-25T08:50:04.818Z,11.70
2023-03-25T08:52:32.608Z,11.90
2023-03-25T08:55:00.395Z,11.90
2023-03-25T08:57:28.156Z,11.80
2023-03-25T08:59:57.330Z,11.70
2023-03-25T09:02:25.243Z,11.70
2023-03-25T09:04:53.056Z,11.60
2023-03-25T09:07:23.103Z,11.40
2023-03-25T09:09:50.860Z,11.30
2023-03-25T09:12:18.617Z,11.10
2023-03-25T09:14:46.389Z,10.90
2023-03-25T09:17:15.661Z,10.90
2023-03-25T09:19:43.650Z,11.00
2023-03-25T09:22:11.390Z,11.40
2023-03-25T09:24:39.146Z,11.80
2023-03-25T09:27:07.310Z,12.30
2023-03-25T09:29:35.435Z,12.80
2023-03-25T09:32:03.585Z,13.20
2023-03-25T09:34:32.672Z,13.40
2023-03-25T09:37:01.044Z,13.30
2023-03-25T09:39:28.949Z,13.10
2023-03-25T09:42:08.527Z,13.00
2023-03-25T09:44:46.196Z,12.80
2023-03-25T09:47:16.643Z,12.70
2023-03-25T09:49:53.461Z,12.50
2023-03-25T09:52:26.372Z,12.30
2023-03-25T09:55:00.346Z,12.10
2023-03-25T09:57:31.504Z,12.10
2023-03-25T10:00:02.181Z,12.10
2023-03-25T10:02:40.848Z,12.10
2023-03-25T10:05:40.650Z,12.30
2023-03-25T10:08:17.781Z,12.70
2023-03-25T10:10:53.424Z,13.20
2023-03-25T10:13:27.606Z,13.60
2023-03-25T10:16:00.898Z,13.70
2023-03-25T10:18:41.845Z,13.60
2023-03-25T10:21:16.301Z,13.70
2023-03-25T10:23:48.664Z,13.70
2023-03-25T10:26:20.636Z,13.60
2023-03-25T10:28:53.070Z,13.40
2023-03-25T10:31:26.182Z,13.30
2023-03-25T10:33:56.332Z,13.30
2023-03-25T10:36:34.007Z,13.40
2023-03-25T10:39:03.959Z,13.50
2023-03-25T10:41:35.426Z,13.80
2023-03-25T10:44:08.985Z,14.00
2023-03-25T10:46:47.169Z,13.80
2023-03-25T10:49:18.053Z,13.80
2023-03-25T10:51:48.731Z,13.50
2023-03-25T10:54:18.611Z,13.20
2023-03-25T10:56:48.776Z,13.30
2023-03-25T10:59:23.575Z,13.70
2023-03-25T11:01:53.701Z,14.00
2023-03-25T11:04:23.795Z,14.20
2023-03-25T11:06:57.877Z,14.10
2023-03-25T11:09:30.111Z,13.80
2023-03-25T11:12:01.263Z,13.40
2023-03-25T11:14:30.578Z,13.00
2023-03-25T11:17:03.023Z,12.60
2023-03-25T11:19:38.802Z,12.30
2023-03-25T11:22:16.410Z,11.90
2023-03-25T11:24:46.761Z,11.70
2023-03-25T11:27:20.298Z,11.50
2023-03-25T11:29:53.025Z,11.20
2023-03-25T11:32:25.913Z,10.80
2023-03-25T11:34:54.857Z,10.40
2023-03-25T11:37:26.155Z,9.90
2023-03-25T11:39:56.219Z,9.40
2023-03-25T11:42:32.455Z,9.10
2023-03-25T11:45:02.235Z,8.90
2023-03-25T11:47:34.093Z,9.10
2023-03-25T11:50:02.959Z,9.40
2023-03-25T11:52:40.468Z,9.70
2023-03-25T11:55:18.890Z,10.20
2023-03-25T11:57:48.352Z,10.60
2023-03-25T12:00:28.818Z,11.00
2023-03-25T12:03:01.225Z,11.30
2023-03-25T12:05:29.326Z,11.40
2023-03-25T12:08:14.882Z,11.60
2023-03-25T12:10:52.289Z,11.60
2023-03-25T12:13:30.989Z,11.70
2023-03-25T12:16:11.636Z,11.60
2023-03-25T12:18:49.577Z,11.50
2023-03-25T12:21:30.921Z,11.70
2023-03-25T12:24:14.364Z,12.10
2023-03-25T12:26:50.441Z,12.60
2023-03-25T12:29:30.899Z,12.90
2023-03-25T12:32:21.691Z,12.80
2023-03-25T12:34:58.564Z,12.80
2023-03-25T12:37:36.265Z,12.90
2023-03-25T12:40:34.589Z,13.00
2023-03-25T12:43:07.786Z,12.90
2023-03-25T12:45:53.783Z,12.90
2023-03-25T12:48:32.367Z,12.90
2023-03-25T12:51:08.358Z,12.70
2023-03-25T12:53:51.692Z,12.60
2023-03-25T12:56:53.492Z,12.70
2023-03-25T12:59:36.786Z,12.70
2023-03-25T13:02:20.959Z,12.50
2023-03-25T13:05:02.795Z,12.30
2023-03-25T13:07:36.382Z,12.10
2023-03-25T13:10:13.646Z,11.90
2023-03-25T13:12:49.550Z,11.80
2023-03-25T13:15:26.974Z,11.70
2023-03-25T13:17:59.743Z,11.80
2023-03-25T13:20:30.639Z,11.90
2023-03-25T13:23:03.732Z,12.10
2023-03-25T13:25:36.581Z,12.30
2023-03-25T13:28:12.427Z,12.40
2023-03-25T13:30:43.087Z,12.30
2023-03-25T13:33:14.823Z,12.20
2023-03-25T13:35:47.707Z,12.00
2023-03-25T13:38:22.267Z,11.50
2023-03-25T13:40:58.606Z,11.00
2023-03-25T13:43:33.141Z,10.60
2023-03-25T13:46:06.056Z,10.00
2023-03-25T13:48:41.343Z,9.70
2023-03-25T13:51:09.854Z,9.30
2023-03-25T13:53:42.932Z,9.20
2023-03-25T13:57:02.296Z,9.10
2023-03-25T13:59:52.448Z,9.20
2023-03-25T14:02:39.652Z,9.50
2023-03-25T14:05:41.005Z,9.90
2023-03-25T14:08:28.530Z,10.40
2023-03-25T14:11:09.338Z,10.70
2023-03-25T14:13:40.261Z,10.90
2023-03-25T14:16:12.530Z,11.00
2023-03-25T14:18:44.090Z,11.00
2023-03-25T14:21:29.274Z,10.90
2023-03-25T14:24:11.625Z,10.70
2023-03-25T14:26:45.619Z,10.50
2023-03-25T14:29:24.809Z,10.30
2023-03-25T14:32:07.179Z,10.30
2023-03-25T14:34:35.327Z,10.30
2023-03-25T14:37:25.839Z,10.50
2023-03-25T14:39:54.631Z,10.50
2023-03-25T14:42:28.702Z,10.70
2023-03-25T14:45:42.010Z,10.80
2023-03-25T14:48:30.334Z,10.80
2023-03-25T14:51:20.349Z,10.90
2023-03-25T14:53:53.826Z,10.90
2023-03-25T14:56:25.451Z,10.80
2023-03-25T14:58:56.991Z,10.80
2023-03-25T15:01:31.237Z,10.80
2023-03-25T15:04:14.653Z,10.80
2023-03-25T15:06:43.538Z,10.70
2023-03-25T15:09:13.586Z,10.80
2023-03-25T15:11:44.614Z,10.80
2023-03-25T15:14:17.413Z,10.90
2023-03-25T15:17:05.350Z,10.90
2023-03-25T15:20:06.378Z,11.00
2023-03-25T15:22:35.654Z,11.00
2023-03-25T15:25:09.206Z,11.10
2023-03-25T15:27:55.333Z,11.20
2023-03-25T15:30:48.867Z,11.20
2023-03-25T15:33:29.363Z,11.20
2023-03-25T15:36:12.005Z,11.20
2023-03-25T15:39:09.301Z,11.20
2023-03-25T15:42:00.526Z,11.30
2023-03-25T15:45:01.169Z,11.30
2023-03-25T15:47:49.398Z,11.40
2023-03-25T15:50:36.130Z,11.40
2023-03-25T15:53:42.799Z,11.40
2023-03-25T15:56:15.723Z,11.40
2023-03-25T15:58:50.924Z,11.40
2023-03-25T16:01:24.736Z,11.40
2023-03-25T16:04:01.143Z,11.40
2023-03-25T16:06:30.514Z,11.30
2023-03-25T16:08:59.266Z,11.30
2023-03-25T16:11:29.246Z,11.20
2023-03-25T16:14:11.609Z,11.10
2023-03-25T16:16:42.203Z,11.10
2023-03-25T16:19:15.612Z,11.10
2023-03-25T16:21:43.508Z,11.10
2023-03-25T16:24:13.892Z,11.10
2023-03-25T16:26:45.738Z,11.10
2023-03-25T16:29:20.274Z,11.20
2023-03-25T16:31:57.795Z,11.20
2023-03-25T16:34:26.704Z,11.30
2023-03-25T16:36:55.940Z,11.40
2023-03-25T16:39:25.899Z,11.40
2023-03-25T16:42:02.858Z,11.40
2023-03-25T16:44:30.930Z,11.30
2023-03-25T16:47:00.096Z,11.30
2023-03-25T16:49:31.520Z,11.30
2023-03-25T16:52:02.169Z,11.30
2023-03-25T16:54:37.498Z,11.30
2023-03-25T16:57:09.433Z,11.30
2023-03-25T16:59:38.857Z,11.20
2023-03-25T17:02:25.361Z,11.20
2023-03-25T17:04:55.252Z,11.20
2023-03-25T17:07:27.409Z,11.10
2023-03-25T17:09:58.182Z,11.10
2023-03-25T17:12:29.671Z,11.00
2023-03-25T17:15:06.581Z,11.10
2023-03-25T17:17:40.196Z,11.00
2023-03-25T17:20:17.843Z,10.90
2023-03-25T17:22:59.233Z,10.90
2023-03-25T17:25:28.820Z,10.90
2023-03-25T17:28:04.942Z,10.80
2023-03-25T17:30:42.367Z,10.70
2023-03-25T17:33:11.455Z,10.60
2023-03-25T17:35:40.443Z,10.60
2023-03-25T17:38:12.079Z,10.50
2023-03-25T17:40:40.005Z,10.40
2023-03-25T17:43:17.806Z,10.40
2023-03-25T17:45:47.053Z,10.30
2023-03-25T17:48:16.853Z,10.30
2023-03-25T17:50:51.734Z,10.30
2023-03-25T17:53:20.194Z,10.20
2023-03-25T17:55:48.750Z,10.20
2023-03-25T17:58:18.953Z,10.20
2023-03-25T18:00:47.922Z,10.10
2023-03-25T18:03:17.626Z,10.10
2023-03-25T18:05:50.590Z,10.10
2023-03-25T18:08:18.629Z,10.00
2023-03-25T18:10:46.930Z,10.00
2023-03-25T18:13:14.763Z,9.90
2023-03-25T18:15:44.323Z,9.90
2023-03-25T18:18:17.230Z,9.90
2023-03-25T18:20:46.593Z,9.90
2023-03-25T18:23:14.483Z,9.90
2023-03-25T18:25:42.745Z,9.90
2023-03-25T18:28:13.001Z,9.90
2023-03-25T18:30:46.488Z,9.80
2023-03-25T18:33:15.642Z,9.80
2023-03-25T18:35:43.611Z,9.80
2023-03-25T18:38:19.060Z,9.80
2023-03-25T18:40:48.860Z,9.70
2023-03-25T18:43:17.505Z,9.70
2023-03-25T18:45:47.567Z,9.70
2023-03-25T18:48:17.427Z,9.60
2023-03-25T18:50:52.226Z,9.60
2023-03-25T18:53:20.581Z,9.60
2023-03-25T18:55:48.873Z,9.60
2023-03-25T18:58:18.412Z,9.60
2023-03-25T19:00:48.568Z,9.60
2023-03-25T19:03:16.864Z,9.60
2023-03-25T19:05:45.319Z,9.50
2023-03-25T19:08:18.285Z,9.50
2023-03-25T19:10:47.052Z,9.50
2023-03-25T19:13:15.784Z,9.40
2023-03-25T19:15:44.104Z,9.40
2023-03-25T19:18:17.194Z,9.50
2023-03-25T19:20:46.957Z,9.40
2023-03-25T19:23:16.506Z,9.40
2023-03-25T19:25:45.646Z,9.40
2023-03-25T19:28:14.506Z,9.40
2023-03-25T19:30:44.858Z,9.40
2023-03-25T19:33:15.336Z,9.40
2023-03-25T19:35:44.145Z,9.30
2023-03-25T19:38:12.287Z,9.30
2023-03-25T19:40:40.257Z,9.30
2023-03-25T19:43:08.078Z,9.30
2023-03-25T19:45:36.513Z,9.30
2023-03-25T19:48:04.492Z,9.30
2023-03-25T19:50:36.097Z,9.30
2023-03-25T19:53:06.052Z,9.30
2023-03-25T19:55:33.979Z,9.30
2023-03-25T19:58:02.163Z,9.30
2023-03-25T20:00:31.650Z,9.30
2023-03-25T20:03:01.500Z,9.40
2023-03-25T20:05:30.675Z,9.40
2023-03-25T20:08:01.541Z,9.40
2023-03-25T20:10:30.954Z,9.40
2023-03-25T20:12:59.955Z,9.40
2023-03-25T20:15:27.931Z,9.50
2023-03-25T20:17:56.230Z,9.50
2023-03-25T20:20:24.758Z,9.50
2023-03-25T20:22:52.976Z,9.50
2023-03-25T20:25:22.375Z,9.50
2023-03-25T20:27:50.267Z,9.60
2023-03-25T20:30:19.867Z,9.60
2023-03-25T20:32:48.660Z,9.60
2023-03-25T20:35:18.119Z,9.60
2023-03-25T20:37:48.557Z,9.60
2023-03-25T20:40:19.763Z,9.60
2023-03-25T20:42:50.269Z,9.60
2023-03-25T20:45:19.159Z,9.60
2023-03-25T20:47:46.989Z,9.50
2023-03-25T20:50:16.255Z,9.50
2023-03-25T20:52:44.821Z,9.50
2023-03-25T20:55:13.577Z,9.40
2023-03-25T20:57:42.353Z,9.40
2023-03-25T21:00:14.140Z,9.30
2023-03-25T21:02:42.530Z,9.30
2023-03-25T21:05:10.732Z,9.30
2023-03-25T21:07:40.952Z,9.20
2023-03-25T21:10:10.012Z,9.20
2023-03-25T21:12:43.957Z,9.20
2023-03-25T21:15:15.191Z,9.20
2023-03-25T21:17:43.430Z,9.10
2023-03-25T21:20:12.184Z,9.10
2023-03-25T21:22:43.861Z,9.10
2023-03-25T21:25:14.006Z,9.10
2023-03-25T21:27:42.152Z,9.00
2023-03-25T21:30:11.028Z,9.10
2023-03-25T21:32:40.256Z,9.10
2023-03-25T21:35:09.537Z,9.00
2023-03-25T21:37:39.042Z,9.00
2023-03-25T21:40:10.318Z,9.00
2023-03-25T21:42:39.038Z,9.00
2023-03-25T21:45:09.006Z,8.90
2023-03-25T21:47:37.169Z,8.90
2023-03-25T21:50:09.383Z,8.90
2023-03-25T21:52:37.743Z,8.80
2023-03-25T21:55:06.409Z,8.80
2023-03-25T21:57:37.585Z,8.70
2023-03-25T22:00:08.453Z,8.70
2023-03-25T22:02:36.518Z,8.60
2023-03-25T22:05:06.160Z,8.60
2023-03-25T22:07:33.953Z,8.50
2023-03-25T22:10:01.770Z,8.50
2023-03-25T22:12:29.899Z,8.50
2023-03-25T22:14:57.856Z,8.50
2023-03-25T22:17:25.997Z,8.40
2023-03-25T22:19:53.840Z,8.40
2023-03-25T22:22:23.084Z,8.30
2023-03-25T22:24:51.154Z,8.30
2023-03-25T22:27:18.971Z,8.30
2023-03-25T22:29:46.758Z,8.30
2023-03-25T22:32:14.605Z,8.30
2023-03-25T22:34:42.383Z,8.30
2023-03-25T22:37:10.183Z,8.20
2023-03-25T22:39:39.507Z,8.30
2023-03-25T22:42:08.098Z,8.20
2023-03-25T22:44:35.836Z,8.20
2023-03-25T22:47:04.123Z,8.20
2023-03-25T22:49:32.148Z,8.20
2023-03-25T22:52:01.169Z,8.20
2023-03-25T22:54:29.053Z,8.20
2023-03-25T22:56:58.307Z,8.30
2023-03-25T22:59:26.174Z,8.20
2023-03-25T23:01:54.103Z,8.20
2023-03-25T23:04:21.936Z,8.20
2023-03-25T23:06:57.251Z,8.30
2023-03-25T23:09:44.875Z,8.20
2023-03-25T23:12:15.944Z,8.20
2023-03-25T23:14:49.533Z,8.10
2023-03-25T23:17:17.389Z,8.10
2023-03-25T23:19:45.357Z,8.00
2023-03-25T23:22:13.229Z,8.00
2023-03-25T23:24:42.063Z,8.00
2023-03-25T23:27:11.996Z,8.00
2023-03-25T23:29:41.488Z,7.90
2023-03-25T23:32:10.145Z,8.00
2023-03-25T23:34:38.697Z,7.90
2023-03-25T23:37:09.088Z,7.90
2023-03-25T23:39:40.161Z,7.90
2023-03-25T23:42:07.958Z,7.90
2023-03-25T23:44:35.958Z,8.00
2023-03-25T23:47:06.102Z,8.00
2023-03-25T23:49:37.953Z,8.00
2023-03-25T23:52:10.567Z,8.00
2023-03-25T23:54:38.735Z,8.00
2023-03-25T23:57:06.844Z,8.10
2023-03-25T23:59:34.641Z,8.10
